createdAt,value
2018-04-27T00:02:01.158Z,15.45
2018-04-27T00:04:29.620Z,15.29
2018-04-27T00:06:58.024Z,15.07
2018-04-27T00:09:26.535Z,14.99
2018-04-27T00:11:55.057Z,14.83
2018-04-27T00:14:23.491Z,14.86
2018-04-27T00:16:51.940Z,14.78
2018-04-27T00:19:20.374Z,14.68
2018-04-27T00:21:48.817Z,14.70
2018-04-27T00:24:17.279Z,14.67
2018-04-27T00:26:45.706Z,15.05
2018-04-27T00:29:14.135Z,15.12
2018-04-27T00:31:42.739Z,15.26
2018-04-27T00:34:11.181Z,15.26
2018-04-27T00:36:39.600Z,15.22
2018-04-27T00:39:08.023Z,15.32
2018-04-27T00:41:36.499Z,14.94
2018-04-27T00:44:04.908Z,14.91
2018-04-27T00:46:33.355Z,14.77
2018-04-27T00:49:01.752Z,14.77
2018-04-27T00:51:30.402Z,14.87
2018-04-27T00:53:58.871Z,14.89
2018-04-27T00:56:27.347Z,14.99
2018-04-27T00:58:55.822Z,14.85
2018-04-27T01:01:24.201Z,14.94
2018-04-27T01:03:52.589Z,14.71
2018-04-27T01:06:21.062Z,14.30
2018-04-27T01:08:49.532Z,14.23
2018-04-27T01:11:17.937Z,14.18
2018-04-27T01:13:46.340Z,14.55
2018-04-27T01:16:14.800Z,14.62
2018-04-27T01:18:43.260Z,14.59
2018-04-27T01:21:11.776Z,14.37
2018-04-27T01:23:40.222Z,14.52
2018-04-27T01:26:08.661Z,14.64
2018-04-27T01:28:37.627Z,14.43
2018-04-27T01:31:06.036Z,14.47
2018-04-27T01:33:34.527Z,14.10
2018-04-27T01:36:03.079Z,14.47
2018-04-27T01:38:31.522Z,14.50
2018-04-27T01:40:59.942Z,14.46
2018-04-27T01:43:29.673Z,14.24
2018-04-27T01:45:58.134Z,13.97
2018-04-27T01:48:26.492Z,13.76
2018-04-27T01:50:55.408Z,13.83
2018-04-27T01:53:23.814Z,13.99
2018-04-27T01:55:52.327Z,14.24
2018-04-27T01:58:20.795Z,14.18
2018-04-27T02:00:49.213Z,14.35
2018-04-27T02:03:17.616Z,14.44
2018-04-27T02:05:46.505Z,14.55
2018-04-27T02:08:14.946Z,14.49
2018-04-27T02:10:43.391Z,14.56
2018-04-27T02:13:12.164Z,14.32
2018-04-27T02:15:40.559Z,14.30
2018-04-27T02:18:09.011Z,14.44
2018-04-27T02:20:37.806Z,14.42
2018-04-27T02:23:06.217Z,14.32
2018-04-27T02:25:34.673Z,13.79
2018-04-27T02:28:03.562Z,14.19
2018-04-27T02:30:31.979Z,14.02
2018-04-27T02:33:00.455Z,14.10
2018-04-27T02:35:29.330Z,14.13
2018-04-27T02:37:57.853Z,13.91
2018-04-27T02:40:26.261Z,14.12
2018-04-27T02:42:54.712Z,13.72
2018-04-27T02:45:23.188Z,13.74
2018-04-27T02:47:51.598Z,13.66
2018-04-27T02:50:20.189Z,13.45
2018-04-27T02:52:48.581Z,13.70
2018-04-27T02:55:17.118Z,13.77
2018-04-27T03:00:20.516Z,13.93
2018-04-27T03:02:49.167Z,13.50
2018-04-27T03:05:17.564Z,13.46
2018-04-27T03:07:46.023Z,13.46
2018-04-27T03:10:14.811Z,13.60
2018-04-27T03:12:43.214Z,13.76
2018-04-27T03:15:11.666Z,13.51
2018-04-27T03:17:40.395Z,13.36
2018-04-27T03:20:08.821Z,13.20
2018-04-27T03:22:37.298Z,13.02
2018-04-27T03:25:05.830Z,13.01
2018-04-27T03:27:34.270Z,13.22
2018-04-27T03:30:02.699Z,13.25
2018-04-27T03:32:31.315Z,13.27
2018-04-27T03:34:59.716Z,13.37
2018-04-27T03:37:28.126Z,13.37
2018-04-27T03:39:56.583Z,13.33
2018-04-27T03:42:25.102Z,13.27
2018-04-27T03:44:53.527Z,13.16
2018-04-27T03:47:22.379Z,13.29
2018-04-27T03:49:50.839Z,13.22
2018-04-27T03:52:19.233Z,13.52
2018-04-27T03:54:48.195Z,13.61
2018-04-27T03:57:16.649Z,13.86
2018-04-27T03:59:57.162Z,14.07
2018-04-27T04:02:37.597Z,14.11
2018-04-27T04:05:17.753Z,13.88
2018-04-27T04:07:46.288Z,13.61
2018-04-27T04:10:14.716Z,13.56
2018-04-27T04:12:43.201Z,13.91
2018-04-27T04:15:11.939Z,14.19
2018-04-27T04:17:40.346Z,14.35
2018-04-27T04:20:08.983Z,14.50
2018-04-27T04:22:37.413Z,14.43
2018-04-27T04:25:05.919Z,14.47
2018-04-27T04:27:34.386Z,14.61
2018-04-27T04:30:02.783Z,14.50
2018-04-27T04:32:31.195Z,14.58
2018-04-27T04:35:00.246Z,14.75
2018-04-27T04:37:28.696Z,14.91
2018-04-27T04:39:57.117Z,15.08
2018-04-27T04:42:25.573Z,15.24
2018-04-27T04:44:54.007Z,15.54
2018-04-27T04:47:22.445Z,15.59
2018-04-27T04:49:50.903Z,15.16
2018-04-27T04:52:19.395Z,16.17
2018-04-27T04:54:47.775Z,16.36
2018-04-27T04:57:16.611Z,16.48
2018-04-27T04:59:45.017Z,16.51
2018-04-27T05:02:13.441Z,16.55
2018-04-27T05:04:42.077Z,16.60
2018-04-27T05:07:10.488Z,16.65
2018-04-27T05:09:38.895Z,16.42
2018-04-27T05:12:07.381Z,16.28
2018-04-27T05:14:35.819Z,16.25
2018-04-27T05:17:04.223Z,16.04
2018-04-27T05:19:32.951Z,15.91
2018-04-27T05:22:01.347Z,16.06
2018-04-27T05:24:29.759Z,16.22
2018-04-27T05:26:58.248Z,16.07
2018-04-27T05:29:26.673Z,16.13
2018-04-27T05:31:55.139Z,16.13
2018-04-27T05:34:23.839Z,16.05
2018-04-27T05:36:52.307Z,16.02
2018-04-27T05:39:20.838Z,16.02
2018-04-27T05:41:49.578Z,16.03
2018-04-27T05:44:18.055Z,15.96
2018-04-27T05:46:46.542Z,15.91
2018-04-27T05:49:15.067Z,15.98
2018-04-27T05:51:43.575Z,16.20
2018-04-27T05:54:12.041Z,16.41
2018-04-27T05:56:40.815Z,16.31
2018-04-27T05:59:09.307Z,16.13
2018-04-27T06:01:37.734Z,16.40
2018-04-27T06:04:13.162Z,16.57
2018-04-27T06:06:41.623Z,16.36
2018-04-27T06:09:10.134Z,16.46
2018-04-27T06:11:38.967Z,16.83
2018-04-27T06:14:07.426Z,16.79
2018-04-27T06:16:35.845Z,16.67
2018-04-27T06:19:04.644Z,16.97
2018-04-27T06:21:33.125Z,16.88
2018-04-27T06:24:01.548Z,16.25
2018-04-27T06:26:30.318Z,16.39
2018-04-27T06:28:58.741Z,16.54
2018-04-27T06:31:27.178Z,16.84
2018-04-27T06:33:55.686Z,16.99
2018-04-27T06:36:24.172Z,16.56
2018-04-27T06:38:52.609Z,16.53
2018-04-27T06:41:21.437Z,16.82
2018-04-27T06:43:49.884Z,16.96
2018-04-27T06:46:18.406Z,17.03
2018-04-27T06:48:47.035Z,16.85
2018-04-27T06:51:15.480Z,16.79
2018-04-27T06:53:43.995Z,17.03
2018-04-27T06:56:12.978Z,16.82
2018-04-27T06:58:41.469Z,17.19
2018-04-27T07:01:09.927Z,17.23
2018-04-27T07:03:38.912Z,17.02
2018-04-27T07:06:07.410Z,17.47
2018-04-27T07:08:35.879Z,17.74
2018-04-27T07:11:04.402Z,17.53
2018-04-27T07:13:32.894Z,17.98
2018-04-27T07:16:01.358Z,18.55
2018-04-27T07:18:29.901Z,18.37
2018-04-27T07:20:58.486Z,18.00
2018-04-27T07:23:26.912Z,18.16
2018-04-27T07:25:55.566Z,18.13
2018-04-27T07:28:23.991Z,17.84
2018-04-27T07:30:52.419Z,18.46
2018-04-27T07:33:21.124Z,18.70
2018-04-27T07:35:49.566Z,18.37
2018-04-27T07:38:18.043Z,18.47
2018-04-27T07:40:46.896Z,18.28
2018-04-27T07:43:15.365Z,18.78
2018-04-27T07:45:43.886Z,19.05
2018-04-27T07:48:12.602Z,18.96
2018-04-27T07:50:41.055Z,19.15
2018-04-27T07:53:09.519Z,19.06
2018-04-27T07:55:38.293Z,19.12
2018-04-27T07:58:06.786Z,19.34
2018-04-27T08:00:35.282Z,19.52
2018-04-27T08:03:04.026Z,19.79
2018-04-27T08:05:32.665Z,19.37
2018-04-27T08:08:01.188Z,19.28
2018-04-27T08:10:29.746Z,19.32
2018-04-27T08:12:58.240Z,19.37
2018-04-27T08:15:26.887Z,19.38
2018-04-27T08:17:55.632Z,19.31
2018-04-27T08:20:26.823Z,19.61
2018-04-27T08:22:56.276Z,19.83
2018-04-27T08:25:27.451Z,19.69
2018-04-27T08:27:56.003Z,19.74
2018-04-27T08:30:24.493Z,19.95
2018-04-27T08:32:53.035Z,20.00
2018-04-27T08:35:21.975Z,20.09
2018-04-27T08:37:50.465Z,20.25
2018-04-27T08:40:18.920Z,20.07
2018-04-27T08:42:47.678Z,19.77
2018-04-27T08:45:16.136Z,19.91
2018-04-27T08:47:44.599Z,20.00
2018-04-27T08:50:13.275Z,20.53
2018-04-27T08:52:41.734Z,20.50
2018-04-27T08:55:10.221Z,20.08
2018-04-27T08:57:39.148Z,20.55
2018-04-27T09:00:07.651Z,20.55
2018-04-27T09:02:36.078Z,20.64
2018-04-27T09:05:04.780Z,20.25
2018-04-27T09:07:33.251Z,20.30
2018-04-27T09:10:01.680Z,21.13
2018-04-27T09:12:30.327Z,20.80
2018-04-27T09:14:58.808Z,20.92
2018-04-27T09:17:27.216Z,21.15
2018-04-27T09:19:55.981Z,20.96
2018-04-27T09:22:24.422Z,21.09
2018-04-27T09:24:52.859Z,21.11
2018-04-27T09:27:21.744Z,21.64
2018-04-27T09:29:50.247Z,21.72
2018-04-27T09:32:18.690Z,21.62
2018-04-27T09:34:47.400Z,21.83
2018-04-27T09:37:15.807Z,21.65
2018-04-27T09:39:44.284Z,22.16
2018-04-27T09:42:13.055Z,22.09
2018-04-27T09:49:50.111Z,21.61
2018-04-27T09:52:18.572Z,22.14
2018-04-27T09:54:46.979Z,23.02
2018-04-27T09:57:15.812Z,23.57
2018-04-27T09:59:44.273Z,22.88
2018-04-27T10:02:12.699Z,23.66
2018-04-27T10:04:41.556Z,23.67
2018-04-27T10:07:10.037Z,23.77
2018-04-27T10:09:38.517Z,22.98
2018-04-27T10:12:07.210Z,23.11
2018-04-27T10:14:35.643Z,23.82
2018-04-27T10:17:04.115Z,24.23
2018-04-27T10:19:33.478Z,24.21
2018-04-27T10:22:01.962Z,23.42
2018-04-27T10:24:30.399Z,23.65
2018-04-27T10:26:58.896Z,24.93
2018-04-27T10:29:27.344Z,25.87
2018-04-27T10:31:55.748Z,26.37
2018-04-27T10:34:24.604Z,26.91
2018-04-27T10:36:53.116Z,27.47
2018-04-27T10:39:25.030Z,28.18
2018-04-27T10:41:53.436Z,26.71
2018-04-27T10:44:21.900Z,25.61
2018-04-27T10:46:50.771Z,25.68
2018-04-27T10:49:19.227Z,26.00
2018-04-27T10:51:47.727Z,26.31
2018-04-27T10:54:16.791Z,27.07
2018-04-27T10:56:45.292Z,26.52
2018-04-27T10:59:13.803Z,26.36
2018-04-27T11:01:42.504Z,25.71
2018-04-27T11:04:11.039Z,26.52
2018-04-27T11:06:39.518Z,27.64
2018-04-27T11:09:08.432Z,28.31
2018-04-27T11:11:36.964Z,27.92
2018-04-27T11:14:05.423Z,29.19
2018-04-27T11:16:34.432Z,30.12
2018-04-27T11:19:02.932Z,29.77
2018-04-27T11:21:31.455Z,29.26
2018-04-27T11:24:00.032Z,29.33
2018-04-27T11:26:28.552Z,29.93
2018-04-27T11:28:57.005Z,27.99
2018-04-27T11:31:25.808Z,28.04
2018-04-27T11:33:54.259Z,27.18
2018-04-27T11:36:22.707Z,27.90
2018-04-27T11:38:51.427Z,28.43
2018-04-27T11:41:19.959Z,28.58
2018-04-27T11:43:48.366Z,28.47
2018-04-27T11:46:16.838Z,29.24
2018-04-27T11:48:45.311Z,29.95
2018-04-27T11:51:13.837Z,30.87
2018-04-27T11:53:42.359Z,31.87
2018-04-27T11:56:10.903Z,33.19
2018-04-27T11:58:39.431Z,33.56
2018-04-27T12:01:07.990Z,33.08
2018-04-27T12:03:36.582Z,33.17
2018-04-27T12:06:05.019Z,32.59
2018-04-27T12:08:33.555Z,33.64
2018-04-27T12:11:02.015Z,34.27
2018-04-27T12:13:30.596Z,34.66
2018-04-27T12:15:59.130Z,34.98
2018-04-27T12:18:27.591Z,35.02
2018-04-27T12:20:56.034Z,36.07
2018-04-27T12:23:24.437Z,36.76
2018-04-27T12:25:52.964Z,36.72
2018-04-27T12:28:21.440Z,36.95
2018-04-27T12:30:49.903Z,36.46
2018-04-27T12:33:18.366Z,36.34
2018-04-27T12:35:46.830Z,35.12
2018-04-27T12:38:15.318Z,35.32
2018-04-27T12:40:43.795Z,36.06
2018-04-27T12:43:12.355Z,34.83
2018-04-27T12:45:40.847Z,34.89
2018-04-27T12:48:09.350Z,35.30
2018-04-27T12:50:37.900Z,34.73
2018-04-27T12:53:06.431Z,35.36
2018-04-27T12:55:34.957Z,36.29
2018-04-27T12:58:03.603Z,34.89
2018-04-27T13:00:32.070Z,34.56
2018-04-27T13:03:00.496Z,34.83
2018-04-27T13:05:28.967Z,34.66
2018-04-27T13:07:57.466Z,35.10
2018-04-27T13:10:26.023Z,35.68
2018-04-27T13:12:54.463Z,36.93
2018-04-27T13:15:22.991Z,35.86
2018-04-27T13:17:51.532Z,34.89
2018-04-27T13:20:20.001Z,34.66
2018-04-27T13:22:48.415Z,33.04
2018-04-27T13:25:16.882Z,34.21
2018-04-27T13:27:45.342Z,35.76
2018-04-27T13:30:13.772Z,36.34
2018-04-27T13:32:42.264Z,35.68
2018-04-27T13:35:10.674Z,35.91
2018-04-27T13:37:39.129Z,35.39
2018-04-27T13:40:07.607Z,36.28
2018-04-27T13:42:36.094Z,37.52
2018-04-27T13:45:04.587Z,38.54
2018-04-27T13:47:33.011Z,38.16
2018-04-27T13:50:01.428Z,38.24
2018-04-27T13:52:29.972Z,37.66
2018-04-27T13:54:58.499Z,38.35
2018-04-27T13:57:27.027Z,37.54
2018-04-27T13:59:55.529Z,35.90
2018-04-27T14:02:24.058Z,34.20
2018-04-27T14:04:52.535Z,34.43
2018-04-27T14:07:21.071Z,35.74
2018-04-27T14:09:49.712Z,36.07
2018-04-27T14:12:18.154Z,37.45
2018-04-27T14:14:46.619Z,36.59
2018-04-27T14:17:15.219Z,37.48
2018-04-27T14:19:43.733Z,38.06
2018-04-27T14:22:12.355Z,38.75
2018-04-27T14:24:40.843Z,39.56
2018-04-27T14:27:09.333Z,37.97
2018-04-27T14:29:37.770Z,38.92
2018-04-27T14:32:06.216Z,38.79
2018-04-27T14:34:34.629Z,37.68
2018-04-27T14:37:03.108Z,37.79
2018-04-27T14:39:31.566Z,38.53
2018-04-27T14:41:59.987Z,38.39
2018-04-27T14:44:28.405Z,40.12
2018-04-27T14:46:56.851Z,40.18
2018-04-27T14:49:25.364Z,39.96
2018-04-27T14:51:53.895Z,39.56
2018-04-27T14:54:22.417Z,39.99
2018-04-27T14:56:50.925Z,39.38
2018-04-27T14:59:19.394Z,38.21
2018-04-27T15:01:47.890Z,37.60
2018-04-27T15:04:16.376Z,38.06
2018-04-27T15:06:44.932Z,37.46
2018-04-27T15:09:13.475Z,36.66
2018-04-27T15:11:41.927Z,37.62
2018-04-27T15:14:10.617Z,37.13
2018-04-27T15:16:39.197Z,36.68
2018-04-27T15:19:07.885Z,36.52
2018-04-27T15:21:36.423Z,37.81
2018-04-27T15:24:04.997Z,34.92
2018-04-27T15:26:33.486Z,32.90
2018-04-27T15:29:02.083Z,32.46
2018-04-27T15:31:30.581Z,34.18
2018-04-27T15:33:59.032Z,35.97
2018-04-27T15:36:27.574Z,33.48
2018-04-27T15:38:56.088Z,33.58
2018-04-27T15:41:24.716Z,35.02
2018-04-27T15:43:53.828Z,35.35
2018-04-27T15:46:22.349Z,35.11
2018-04-27T15:48:50.844Z,35.27
2018-04-27T15:51:19.571Z,35.11
2018-04-27T15:53:48.216Z,33.22
2018-04-27T15:56:16.776Z,33.95
2018-04-27T15:58:45.282Z,34.40
2018-04-27T16:01:13.807Z,34.29
2018-04-27T16:03:43.421Z,33.87
2018-04-27T16:06:11.947Z,33.59
2018-04-27T16:08:41.266Z,33.73
2018-04-27T16:11:09.734Z,34.25
2018-04-27T16:13:43.958Z,34.12
2018-04-27T16:16:12.505Z,33.84
2018-04-27T16:18:40.999Z,33.80
2018-04-27T16:21:09.642Z,32.51
2018-04-27T16:23:38.145Z,32.38
2018-04-27T16:26:06.741Z,32.42
2018-04-27T16:28:35.395Z,31.86
2018-04-27T16:31:03.913Z,31.15
2018-04-27T16:33:32.591Z,31.57
2018-04-27T16:36:01.079Z,31.37
2018-04-27T16:38:29.619Z,31.25
2018-04-27T16:40:58.169Z,30.90
2018-04-27T16:43:26.828Z,30.22
2018-04-27T16:45:55.374Z,29.43
2018-04-27T16:48:23.811Z,28.19
2018-04-27T16:50:52.455Z,27.79
2018-04-27T16:53:21.258Z,27.90
2018-04-27T16:55:49.775Z,27.54
2018-04-27T16:58:18.293Z,26.93
2018-04-27T17:00:46.843Z,26.14
2018-04-27T17:03:15.766Z,25.95
2018-04-27T17:05:44.361Z,25.48
2018-04-27T17:08:12.995Z,25.33
2018-04-27T17:10:41.763Z,24.73
2018-04-27T17:13:10.352Z,24.66
2018-04-27T17:15:38.869Z,24.48
2018-04-27T17:18:07.427Z,24.12
2018-04-27T17:20:36.410Z,23.67
2018-04-27T17:23:05.040Z,23.73
2018-04-27T17:25:33.534Z,23.39
2018-04-27T17:28:02.083Z,23.22
2018-04-27T17:30:30.615Z,23.14
2018-04-27T17:32:59.158Z,23.21
2018-04-27T17:35:27.840Z,23.02
2018-04-27T17:37:56.387Z,22.68
2018-04-27T17:40:25.053Z,22.78
2018-04-27T17:42:53.612Z,22.60
2018-04-27T17:45:22.072Z,22.63
2018-04-27T17:47:50.636Z,22.45
2018-04-27T17:50:19.165Z,22.34
2018-04-27T17:52:47.906Z,22.33
2018-04-27T17:55:16.352Z,22.19
2018-04-27T17:57:45.076Z,22.08
2018-04-27T18:00:13.588Z,21.85
2018-04-27T18:02:42.106Z,21.78
2018-04-27T18:05:10.601Z,21.81
2018-04-27T18:07:39.035Z,21.77
2018-04-27T18:10:07.519Z,21.59
2018-04-27T18:12:36.050Z,21.48
2018-04-27T18:15:04.522Z,21.17
2018-04-27T18:17:33.024Z,21.42
2018-04-27T18:20:01.555Z,21.34
2018-04-27T18:22:30.027Z,21.42
2018-04-27T18:24:58.627Z,21.36
2018-04-27T18:27:27.182Z,21.33
2018-04-27T18:29:55.679Z,21.35
2018-04-27T18:32:24.201Z,21.35
2018-04-27T18:34:52.649Z,20.82
2018-04-27T18:37:21.167Z,20.72
2018-04-27T18:39:49.692Z,21.17
2018-04-27T18:42:18.218Z,21.32
2018-04-27T18:44:46.700Z,21.03
2018-04-27T18:47:15.272Z,20.88
2018-04-27T18:49:43.851Z,21.20
2018-04-27T18:52:12.389Z,21.01
2018-04-27T18:54:40.896Z,20.89
2018-04-27T18:57:09.441Z,21.09
2018-04-27T18:59:40.985Z,20.95
2018-04-27T19:02:09.628Z,21.03
2018-04-27T19:04:38.186Z,20.98
2018-04-27T19:07:06.791Z,20.97
2018-04-27T19:09:35.507Z,20.82
2018-04-27T19:12:04.147Z,20.87
2018-04-27T19:14:32.862Z,20.77
2018-04-27T19:17:01.353Z,20.70
2018-04-27T19:19:29.846Z,20.68
2018-04-27T19:21:58.600Z,20.49
2018-04-27T19:24:27.179Z,20.68
2018-04-27T19:26:55.699Z,20.64
2018-04-27T19:29:24.338Z,20.58
2018-04-27T19:31:52.799Z,20.41
2018-04-27T19:34:21.364Z,20.06
2018-04-27T19:36:50.207Z,19.70
2018-04-27T19:39:18.715Z,19.24
2018-04-27T19:41:47.248Z,19.25
2018-04-27T19:44:16.791Z,19.31
2018-04-27T19:46:45.396Z,19.31
2018-04-27T19:49:15.890Z,19.24
2018-04-27T19:51:44.797Z,19.11
2018-04-27T19:54:13.309Z,18.91
2018-04-27T19:56:41.802Z,19.24
2018-04-27T19:59:10.263Z,19.40
2018-04-27T20:01:38.836Z,19.14
2018-04-27T20:04:07.293Z,19.00
2018-04-27T20:06:35.807Z,18.93
2018-04-27T20:09:04.305Z,19.01
2018-04-27T20:11:32.822Z,18.74
2018-04-27T20:14:01.394Z,18.70
2018-04-27T20:16:36.779Z,18.67
2018-04-27T20:19:09.134Z,18.73
2018-04-27T20:21:37.708Z,18.62
2018-04-27T20:24:06.251Z,18.06
2018-04-27T20:26:34.767Z,18.43
2018-04-27T20:29:04.004Z,18.31
2018-04-27T20:31:32.557Z,18.49
2018-04-27T20:34:01.054Z,18.50
2018-04-27T20:36:29.574Z,18.31
2018-04-27T20:38:58.056Z,17.82
2018-04-27T20:41:27.467Z,17.58
2018-04-27T20:43:55.976Z,17.58
2018-04-27T20:46:24.543Z,17.98
2018-04-27T20:48:53.093Z,18.08
2018-04-27T20:51:22.210Z,17.95
2018-04-27T20:53:51.709Z,17.77
2018-04-27T20:56:20.219Z,17.55
2018-04-27T20:58:48.728Z,17.95
2018-04-27T21:01:17.263Z,17.17
2018-04-27T21:03:45.790Z,17.41
2018-04-27T21:06:18.120Z,16.82
2018-04-27T21:08:46.611Z,16.72
2018-04-27T21:11:15.222Z,16.82
2018-04-27T21:13:43.805Z,16.99
2018-04-27T21:16:12.396Z,16.83
2018-04-27T21:18:40.948Z,17.22
2018-04-27T21:21:09.503Z,17.18
2018-04-27T21:23:37.962Z,17.08
2018-04-27T21:26:06.482Z,17.04
2018-04-27T21:28:35.979Z,17.11
2018-04-27T21:31:04.596Z,17.26
2018-04-27T21:33:35.961Z,17.10
2018-04-27T21:36:06.234Z,17.16
2018-04-27T21:44:46.616Z,17.01
2018-04-27T21:47:50.705Z,16.89
2018-04-27T21:50:19.193Z,16.41
2018-04-27T21:52:50.314Z,16.53
2018-04-27T21:55:18.859Z,16.64
2018-04-27T21:57:52.091Z,16.46
2018-04-27T22:00:21.563Z,16.71
2018-04-27T22:03:14.582Z,16.63
2018-04-27T22:05:50.101Z,16.80
2018-04-27T22:08:26.603Z,16.53
2018-04-27T22:11:11.041Z,16.19
2018-04-27T22:13:39.570Z,16.07
2018-04-27T22:19:15.882Z,16.17
2018-04-27T22:21:47.300Z,16.31
2018-04-27T22:24:15.800Z,16.25
2018-04-27T22:26:45.107Z,16.23
2018-04-27T22:32:13.577Z,16.14
2018-04-27T22:34:55.856Z,16.19
2018-04-27T22:37:24.419Z,16.31
2018-04-27T22:40:01.958Z,16.13
2018-04-27T22:42:31.877Z,16.20
2018-04-27T22:45:13.258Z,15.68
2018-04-27T22:47:47.630Z,15.78
2018-04-27T22:50:17.839Z,15.85
2018-04-27T22:52:47.104Z,15.77
2018-04-27T22:55:15.574Z,16.01
2018-04-27T22:58:12.751Z,15.86
2018-04-27T23:00:51.247Z,15.70
2018-04-27T23:03:20.419Z,15.79
2018-04-27T23:05:49.679Z,15.73
2018-04-27T23:08:18.249Z,15.75
2018-04-27T23:10:48.535Z,15.82
2018-04-27T23:13:50.528Z,15.67
2018-04-27T23:16:27.628Z,15.67
2018-04-27T23:18:56.163Z,15.74
2018-04-27T23:24:26.032Z,15.27
2018-04-27T23:26:55.606Z,15.41
2018-04-27T23:29:24.216Z,15.65
2018-04-27T23:31:52.942Z,15.90
2018-04-27T23:34:24.500Z,15.77
2018-04-27T23:36:54.926Z,15.59
2018-04-27T23:39:23.537Z,15.57
2018-04-27T23:41:52.085Z,15.72
2018-04-27T23:44:20.656Z,15.52
2018-04-27T23:46:49.229Z,15.54
2018-04-27T23:49:17.925Z,15.59
2018-04-27T23:51:47.208Z,15.61
2018-04-27T23:54:15.720Z,15.75
2018-04-27T23:56:49.674Z,15.42
2018-04-27T23:59:22.712Z,15.54
